createdAt,value
2022-09-07T00:01:18.183Z,18.79
2022-09-07T00:03:46.453Z,18.80
2022-09-07T00:06:15.660Z,18.89
2022-09-07T00:08:43.885Z,18.80
2022-09-07T00:11:16.079Z,18.66
2022-09-07T00:13:47.458Z,18.62
2022-09-07T00:16:21.068Z,18.75
2022-09-07T00:18:49.464Z,18.59
2022-09-07T00:21:18.785Z,18.43
2022-09-07T00:23:49.843Z,17.99
2022-09-07T00:26:24.123Z,17.78
2022-09-07T00:28:57.371Z,17.81
2022-09-07T00:31:26.316Z,17.81
2022-09-07T00:33:58.852Z,17.84
2022-09-07T00:36:27.960Z,17.73
2022-09-07T00:38:56.509Z,17.84
2022-09-07T00:41:25.455Z,17.83
2022-09-07T00:43:58.376Z,17.86
2022-09-07T00:46:32.186Z,17.83
2022-09-07T00:49:18.651Z,17.70
2022-09-07T00:52:04.198Z,17.90
2022-09-07T00:54:42.550Z,18.04
2022-09-07T00:57:11.726Z,18.14
2022-09-07T00:59:48.419Z,18.12
2022-09-07T01:02:18.159Z,17.99
2022-09-07T01:04:51.972Z,17.79
2022-09-07T01:07:20.328Z,17.67
2022-09-07T01:09:50.902Z,17.57
2022-09-07T01:12:19.132Z,17.67
2022-09-07T01:14:53.243Z,17.67
2022-09-07T01:18:11.148Z,17.36
2022-09-07T01:21:10.341Z,17.47
2022-09-07T01:24:25.885Z,17.41
2022-09-07T01:27:48.626Z,17.11
2022-09-07T01:30:21.487Z,17.25
2022-09-07T01:33:23.240Z,17.14
2022-09-07T01:36:34.724Z,16.99
2022-09-07T01:39:05.683Z,17.05
2022-09-07T01:42:03.711Z,17.11
2022-09-07T01:44:45.406Z,17.13
2022-09-07T01:47:25.010Z,17.20
2022-09-07T01:50:16.335Z,17.05
2022-09-07T01:53:01.077Z,16.95
2022-09-07T01:55:50.675Z,16.75
2022-09-07T01:58:33.042Z,16.64
2022-09-07T02:01:33.057Z,16.65
2022-09-07T02:04:14.550Z,16.54
2022-09-07T02:07:01.767Z,16.52
2022-09-07T02:09:58.632Z,16.71
2022-09-07T02:13:01.408Z,16.60
2022-09-07T02:15:44.680Z,16.46
2022-09-07T02:18:16.551Z,16.51
2022-09-07T02:20:51.019Z,16.30
2022-09-07T02:23:26.010Z,16.35
2022-09-07T02:26:04.781Z,16.44
2022-09-07T02:28:36.617Z,16.33
2022-09-07T02:31:05.388Z,16.32
2022-09-07T02:33:34.165Z,16.41
2022-09-07T02:36:04.622Z,16.23
2022-09-07T02:38:35.079Z,16.21
2022-09-07T02:41:04.799Z,16.57
2022-09-07T02:43:33.616Z,16.42
2022-09-07T02:46:43.520Z,16.74
2022-09-07T02:49:54.527Z,16.80
2022-09-07T02:53:11.059Z,16.75
2022-09-07T02:56:10.225Z,16.80
2022-09-07T02:59:25.580Z,16.44
2022-09-07T03:02:31.008Z,16.48
2022-09-07T03:05:40.699Z,16.35
2022-09-07T03:08:18.606Z,16.26
2022-09-07T03:10:49.502Z,16.05
2022-09-07T03:13:25.704Z,16.12
2022-09-07T03:15:56.153Z,15.98
2022-09-07T03:18:27.205Z,15.98
2022-09-07T03:20:56.087Z,16.06
2022-09-07T03:23:24.541Z,16.18
2022-09-07T03:25:52.861Z,15.94
2022-09-07T03:28:21.106Z,15.94
2022-09-07T03:30:49.404Z,16.01
2022-09-07T03:33:17.897Z,15.96
2022-09-07T03:35:56.724Z,15.98
2022-09-07T03:38:25.079Z,16.09
2022-09-07T03:41:06.214Z,15.97
2022-09-07T03:43:35.178Z,15.87
2022-09-07T03:46:07.261Z,15.94
2022-09-07T03:48:37.656Z,15.81
2022-09-07T03:51:10.491Z,15.72
2022-09-07T03:53:42.045Z,15.90
2022-09-07T03:56:18.309Z,15.54
2022-09-07T03:58:49.231Z,15.68
2022-09-07T04:01:22.418Z,15.74
2022-09-07T04:03:51.578Z,15.59
2022-09-07T04:06:20.517Z,15.65
2022-09-07T04:08:48.853Z,15.41
2022-09-07T04:11:19.144Z,15.34
2022-09-07T04:13:47.454Z,15.28
2022-09-07T04:16:23.120Z,15.19
2022-09-07T04:18:54.826Z,15.20
2022-09-07T04:21:25.447Z,15.36
2022-09-07T04:23:54.180Z,15.30
2022-09-07T04:26:31.941Z,15.26
2022-09-07T04:29:04.152Z,15.27
2022-09-07T04:31:35.224Z,15.49
2022-09-07T04:34:05.435Z,15.43
2022-09-07T04:36:34.159Z,15.45
2022-09-07T04:39:05.172Z,15.40
2022-09-07T04:41:35.038Z,15.41
2022-09-07T04:44:04.492Z,15.35
2022-09-07T04:46:37.561Z,15.43
2022-09-07T04:49:10.743Z,15.37
2022-09-07T04:51:42.670Z,15.34
2022-09-07T04:54:11.596Z,15.48
2022-09-07T04:56:39.850Z,15.37
2022-09-07T04:59:08.140Z,15.26
2022-09-07T05:01:36.499Z,15.18
2022-09-07T05:04:05.376Z,15.24
2022-09-07T05:06:33.656Z,15.27
2022-09-07T05:09:02.154Z,15.27
2022-09-07T05:11:30.419Z,15.42
2022-09-07T05:14:01.065Z,15.38
2022-09-07T05:16:31.111Z,15.25
2022-09-07T05:19:02.583Z,15.27
2022-09-07T05:21:33.939Z,15.38
2022-09-07T05:24:04.277Z,15.42
2022-09-07T05:26:36.757Z,15.30
2022-09-07T05:31:55.006Z,15.44
2022-09-07T05:34:32.306Z,15.25
2022-09-07T05:37:02.147Z,15.27
2022-09-07T05:39:30.686Z,15.42
2022-09-07T05:41:58.961Z,15.40
2022-09-07T05:47:10.939Z,15.40
2022-09-07T05:49:39.546Z,15.32
2022-09-07T05:52:07.902Z,15.47
2022-09-07T05:54:36.216Z,15.44
2022-09-07T05:57:04.741Z,15.52
2022-09-07T05:59:33.460Z,15.67
2022-09-07T06:02:01.891Z,15.69
2022-09-07T06:04:30.261Z,15.73
2022-09-07T06:07:20.699Z,15.89
2022-09-07T06:12:35.357Z,15.88
2022-09-07T06:15:05.456Z,15.90
2022-09-07T06:17:33.693Z,16.02
2022-09-07T06:20:02.795Z,16.28
2022-09-07T06:22:31.451Z,16.26
2022-09-07T06:24:59.793Z,16.40
2022-09-07T06:27:28.311Z,16.43
2022-09-07T06:29:56.739Z,16.48
2022-09-07T06:35:15.427Z,16.46
2022-09-07T06:37:44.237Z,16.62
2022-09-07T06:40:12.810Z,16.81
2022-09-07T06:42:41.324Z,16.84
2022-09-07T06:45:11.754Z,16.94
2022-09-07T06:47:40.690Z,16.86
2022-09-07T06:50:10.059Z,16.99
2022-09-07T06:55:27.999Z,17.17
2022-09-07T06:57:56.317Z,17.26
2022-09-07T07:00:25.429Z,17.25
2022-09-07T07:02:53.846Z,17.45
2022-09-07T07:05:22.170Z,17.32
2022-09-07T07:07:50.391Z,17.39
2022-09-07T07:10:23.652Z,17.49
2022-09-07T07:12:57.748Z,17.65
2022-09-07T07:15:28.723Z,17.59
2022-09-07T07:18:05.477Z,17.72
2022-09-07T07:20:43.246Z,17.67
2022-09-07T07:23:12.476Z,17.52
2022-09-07T07:25:40.745Z,17.77
2022-09-07T07:31:00.153Z,18.00
2022-09-07T07:33:34.455Z,18.09
2022-09-07T07:36:27.267Z,18.33
2022-09-07T07:44:20.796Z,18.72
2022-09-07T07:46:52.152Z,18.67
2022-09-07T07:49:20.857Z,18.80
2022-09-07T07:54:37.327Z,18.99
2022-09-07T07:57:06.269Z,19.15
2022-09-07T07:59:35.569Z,19.23
2022-09-07T08:02:06.841Z,19.18
2022-09-07T08:04:35.459Z,19.38
2022-09-07T08:07:09.638Z,19.49
2022-09-07T08:09:44.997Z,19.65
2022-09-07T08:12:19.909Z,19.64
2022-09-07T08:14:48.982Z,19.89
2022-09-07T08:17:18.121Z,20.10
2022-09-07T08:19:46.356Z,20.25
2022-09-07T08:22:14.760Z,20.39
2022-09-07T08:24:42.914Z,20.48
2022-09-07T08:27:11.217Z,20.49
2022-09-07T08:29:39.384Z,20.61
2022-09-07T08:32:07.656Z,20.84
2022-09-07T08:34:37.330Z,21.10
2022-09-07T08:37:05.579Z,21.33
2022-09-07T08:39:33.896Z,21.49
2022-09-07T08:42:30.558Z,21.94
2022-09-07T08:45:38.229Z,22.15
2022-09-07T08:48:06.538Z,22.37
2022-09-07T08:51:00.926Z,22.33
2022-09-07T08:53:29.919Z,22.00
2022-09-07T08:56:09.722Z,22.45
2022-09-07T08:58:53.312Z,22.97
2022-09-07T09:01:41.175Z,23.24
2022-09-07T09:04:27.459Z,23.53
2022-09-07T09:07:26.908Z,23.76
2022-09-07T09:10:37.426Z,23.79
2022-09-07T09:13:28.557Z,24.13
2022-09-07T09:16:33.016Z,24.11
2022-09-07T09:19:19.247Z,24.08
2022-09-07T09:21:48.306Z,24.25
2022-09-07T09:24:38.475Z,24.20
2022-09-07T09:27:06.889Z,24.54
2022-09-07T09:29:35.067Z,25.04
2022-09-07T09:32:42.815Z,25.21
2022-09-07T09:35:34.878Z,25.10
2022-09-07T09:38:03.782Z,25.14
2022-09-07T09:40:35.206Z,25.38
2022-09-07T09:43:18.098Z,25.23
2022-09-07T09:48:43.077Z,25.14
2022-09-07T09:54:28.229Z,25.71
2022-09-07T09:56:56.886Z,25.80
2022-09-07T10:05:41.408Z,26.79
2022-09-07T10:08:25.437Z,26.81
2022-09-07T10:10:55.921Z,26.30
2022-09-07T10:13:44.057Z,24.87
2022-09-07T10:16:12.841Z,26.29
2022-09-07T10:18:56.041Z,26.81
2022-09-07T10:21:28.809Z,26.51
2022-09-07T10:24:15.824Z,26.63
2022-09-07T10:26:45.027Z,27.02
2022-09-07T10:29:36.043Z,27.18
2022-09-07T10:32:52.194Z,27.24
2022-09-07T10:36:15.306Z,26.35
2022-09-07T10:38:57.303Z,26.15
2022-09-07T10:42:01.309Z,26.35
2022-09-07T10:45:14.408Z,26.10
2022-09-07T10:48:01.230Z,26.08
2022-09-07T10:50:43.345Z,26.52
2022-09-07T10:53:42.296Z,26.62
2022-09-07T10:56:24.270Z,26.29
2022-09-07T10:59:04.807Z,26.60
2022-09-07T11:02:34.307Z,26.58
2022-09-07T11:05:54.778Z,26.28
2022-09-07T11:09:21.297Z,26.48
2022-09-07T11:12:07.071Z,26.27
2022-09-07T11:14:52.875Z,26.38
2022-09-07T11:17:27.765Z,26.35
2022-09-07T11:20:35.528Z,26.41
2022-09-07T11:23:17.098Z,26.65
2022-09-07T11:26:11.401Z,26.42
2022-09-07T11:32:14.777Z,26.44
2022-09-07T11:35:33.565Z,26.88
2022-09-07T11:38:20.351Z,27.50
2022-09-07T11:41:13.890Z,27.59
2022-09-07T11:43:58.601Z,27.43
2022-09-07T11:46:40.816Z,27.25
2022-09-07T11:49:28.782Z,27.29
2022-09-07T11:52:10.393Z,27.46
2022-09-07T11:54:56.573Z,27.28
2022-09-07T11:58:14.509Z,26.76
2022-09-07T12:01:25.577Z,27.05
2022-09-07T12:04:05.984Z,26.43
2022-09-07T12:07:09.728Z,26.74
2022-09-07T12:10:01.313Z,26.72
2022-09-07T12:12:44.437Z,26.57
2022-09-07T12:15:41.699Z,27.02
2022-09-07T12:18:54.238Z,27.46
2022-09-07T12:21:40.656Z,27.13
2022-09-07T12:24:43.236Z,27.05
2022-09-07T12:27:31.597Z,27.35
2022-09-07T12:30:01.634Z,27.17
2022-09-07T12:32:57.338Z,27.52
2022-09-07T12:35:28.717Z,27.66
2022-09-07T12:38:00.831Z,27.46
2022-09-07T12:40:29.129Z,27.60
2022-09-07T12:43:12.463Z,27.37
2022-09-07T12:45:40.531Z,27.48
2022-09-07T12:48:17.748Z,27.61
2022-09-07T12:54:37.962Z,27.56
2022-09-07T12:57:38.268Z,27.14
2022-09-07T13:00:37.795Z,27.45
2022-09-07T13:04:02.417Z,27.77
2022-09-07T13:07:21.852Z,27.78
2022-09-07T13:10:04.674Z,27.96
2022-09-07T13:15:49.013Z,27.78
2022-09-07T13:18:26.992Z,27.66
2022-09-07T13:21:07.329Z,27.82
2022-09-07T13:23:49.482Z,27.70
2022-09-07T13:27:14.918Z,27.63
2022-09-07T13:30:03.299Z,27.69
2022-09-07T13:35:27.159Z,27.64
2022-09-07T13:38:01.090Z,27.47
2022-09-07T13:40:39.559Z,27.35
2022-09-07T13:43:20.931Z,27.47
2022-09-07T13:45:54.941Z,27.40
2022-09-07T13:48:42.147Z,27.23
2022-09-07T13:51:16.556Z,27.60
2022-09-07T13:54:15.357Z,27.37
2022-09-07T13:57:41.343Z,27.70
2022-09-07T14:00:15.808Z,28.42
2022-09-07T14:02:54.420Z,28.38
2022-09-07T14:05:24.690Z,28.74
2022-09-07T14:07:52.891Z,28.55
2022-09-07T14:10:25.470Z,28.58
2022-09-07T14:13:07.010Z,28.83
2022-09-07T14:15:44.055Z,28.78
2022-09-07T14:18:29.578Z,28.49
2022-09-07T14:20:58.781Z,27.57
2022-09-07T14:23:34.950Z,27.76
2022-09-07T14:26:19.237Z,28.17
2022-09-07T14:28:52.090Z,28.04
2022-09-07T14:31:23.089Z,28.31
2022-09-07T14:33:53.610Z,27.74
2022-09-07T14:36:45.764Z,27.79
2022-09-07T14:39:19.522Z,27.64
2022-09-07T14:41:49.082Z,27.41
2022-09-07T14:44:34.732Z,27.92
2022-09-07T14:47:29.813Z,28.12
2022-09-07T14:50:06.119Z,27.74
2022-09-07T14:53:33.280Z,28.05
2022-09-07T14:55:40.787Z,28.25
2022-09-07T14:58:14.551Z,28.23
2022-09-07T15:01:37.219Z,28.00
2022-09-07T15:03:37.224Z,27.96
2022-09-07T15:06:07.807Z,27.99
2022-09-07T15:08:43.786Z,28.28
2022-09-07T15:11:39.507Z,28.42
2022-09-07T15:14:20.506Z,28.64
2022-09-07T15:19:51.092Z,28.48
2022-09-07T15:22:19.283Z,28.67
2022-09-07T15:24:48.805Z,28.56
2022-09-07T15:27:29.844Z,28.69
2022-09-07T15:29:58.003Z,28.64
2022-09-07T15:32:26.158Z,28.33
2022-09-07T15:34:54.329Z,28.50
2022-09-07T15:40:22.245Z,28.65
2022-09-07T15:43:19.270Z,28.68
2022-09-07T15:45:39.826Z,28.72
2022-09-07T15:48:14.225Z,28.45
2022-09-07T15:50:42.582Z,28.17
2022-09-07T15:54:07.458Z,28.62
2022-09-07T15:55:59.047Z,27.98
2022-09-07T15:58:27.418Z,28.05
2022-09-07T16:03:44.523Z,27.95
2022-09-07T16:06:16.791Z,27.70
2022-09-07T16:08:44.949Z,27.54
2022-09-07T16:11:28.055Z,27.62
2022-09-07T16:14:01.800Z,27.70
2022-09-07T16:19:21.007Z,27.52
2022-09-07T16:21:49.333Z,27.79
2022-09-07T16:24:17.618Z,27.45
2022-09-07T16:26:45.942Z,27.46
2022-09-07T16:29:14.227Z,27.18
2022-09-07T16:34:30.726Z,26.85
2022-09-07T16:36:58.834Z,27.03
2022-09-07T16:39:29.145Z,26.98
2022-09-07T16:41:57.372Z,27.23
2022-09-07T16:44:25.535Z,27.05
2022-09-07T16:46:53.687Z,26.83
2022-09-07T16:49:22.079Z,26.65
2022-09-07T16:51:50.333Z,26.58
2022-09-07T16:54:18.464Z,26.79
2022-09-07T16:56:47.493Z,27.04
2022-09-07T16:59:17.013Z,26.96
2022-09-07T17:01:46.004Z,27.18
2022-09-07T17:04:14.207Z,27.15
2022-09-07T17:06:42.483Z,27.13
2022-09-07T17:09:14.648Z,26.93
2022-09-07T17:11:43.095Z,26.94
2022-09-07T17:14:11.357Z,26.08
2022-09-07T17:16:41.307Z,25.18
2022-09-07T17:22:01.290Z,24.20
2022-09-07T17:24:32.378Z,23.68
2022-09-07T17:27:01.388Z,23.37
2022-09-07T17:29:37.133Z,21.99
2022-09-07T17:34:55.804Z,21.73
2022-09-07T17:37:24.210Z,21.79
2022-09-07T17:39:52.539Z,21.56
2022-09-07T17:42:20.845Z,21.78
2022-09-07T17:44:52.803Z,21.96
2022-09-07T17:47:21.364Z,21.66
2022-09-07T17:49:49.509Z,21.89
2022-09-07T17:52:17.688Z,21.93
2022-09-07T17:54:45.784Z,21.86
2022-09-07T17:57:13.962Z,21.83
2022-09-07T18:02:37.949Z,22.23
2022-09-07T18:05:07.310Z,22.02
2022-09-07T18:07:35.609Z,22.20
2022-09-07T18:10:03.949Z,22.34
2022-09-07T18:12:32.891Z,22.64
2022-09-07T18:15:01.398Z,22.33
2022-09-07T18:17:29.636Z,22.27
2022-09-07T18:19:57.862Z,22.39
2022-09-07T18:22:26.006Z,22.58
2022-09-07T18:24:54.182Z,22.71
2022-09-07T18:27:22.287Z,22.69
2022-09-07T18:29:50.492Z,22.77
2022-09-07T18:32:18.644Z,22.71
2022-09-07T18:34:50.594Z,22.62
2022-09-07T18:37:19.399Z,22.66
2022-09-07T18:39:48.674Z,22.47
2022-09-07T18:42:17.077Z,22.58
2022-09-07T18:47:34.925Z,22.40
2022-09-07T18:50:03.216Z,22.35
2022-09-07T18:55:19.453Z,22.30
2022-09-07T18:57:47.641Z,22.37
2022-09-07T19:00:16.158Z,22.36
2022-09-07T19:02:50.032Z,22.40
2022-09-07T19:08:08.522Z,22.10
2022-09-07T19:10:37.515Z,22.03
2022-09-07T19:13:05.739Z,22.15
2022-09-07T19:15:37.458Z,22.21
2022-09-07T19:18:07.805Z,22.23
2022-09-07T19:20:37.307Z,22.22
2022-09-07T19:23:06.505Z,22.17
2022-09-07T19:25:39.076Z,22.09
2022-09-07T19:28:07.203Z,22.01
2022-09-07T19:30:35.835Z,21.97
2022-09-07T19:33:04.688Z,21.89
2022-09-07T19:35:36.195Z,21.76
2022-09-07T19:38:04.615Z,21.60
2022-09-07T19:40:33.024Z,21.62
2022-09-07T19:43:01.154Z,21.57
2022-09-07T19:45:29.645Z,21.67
2022-09-07T19:47:58.200Z,21.78
2022-09-07T19:50:26.436Z,21.80
2022-09-07T19:52:54.697Z,21.96
2022-09-07T19:55:22.975Z,22.03
2022-09-07T19:57:52.462Z,21.93
2022-09-07T20:00:20.846Z,21.87
2022-09-07T20:02:50.297Z,21.82
2022-09-07T20:05:19.248Z,21.73
2022-09-07T20:07:47.432Z,21.88
2022-09-07T20:10:16.078Z,21.82
2022-09-07T20:12:44.500Z,21.71
2022-09-07T20:15:12.731Z,21.55
2022-09-07T20:17:40.899Z,21.65
2022-09-07T20:20:09.742Z,21.74
2022-09-07T20:22:37.967Z,21.56
2022-09-07T20:25:10.176Z,21.61
2022-09-07T20:27:41.537Z,21.51
2022-09-07T20:30:10.715Z,21.09
2022-09-07T20:32:39.026Z,20.97
2022-09-07T20:35:07.398Z,20.60
2022-09-07T20:37:35.646Z,20.32
2022-09-07T20:40:04.193Z,20.58
2022-09-07T20:42:32.467Z,20.45
2022-09-07T20:45:02.276Z,20.60
2022-09-07T20:47:30.556Z,20.74
2022-09-07T20:49:58.949Z,20.55
2022-09-07T20:52:27.166Z,20.59
2022-09-07T20:54:55.319Z,20.47
2022-09-07T20:57:23.534Z,20.45
2022-09-07T20:59:52.805Z,20.72
2022-09-07T21:02:21.068Z,20.75
2022-09-07T21:04:49.264Z,20.67
2022-09-07T21:07:17.720Z,20.61
2022-09-07T21:09:45.878Z,20.68
2022-09-07T21:12:14.047Z,20.78
2022-09-07T21:14:42.362Z,19.53
2022-09-07T21:17:10.505Z,19.71
2022-09-07T21:19:38.672Z,20.05
2022-09-07T21:22:06.815Z,20.05
2022-09-07T21:24:34.953Z,20.07
2022-09-07T21:27:03.094Z,20.18
2022-09-07T21:29:31.271Z,20.26
2022-09-07T21:31:59.676Z,20.12
2022-09-07T21:34:27.815Z,20.17
2022-09-07T21:36:55.951Z,20.16
2022-09-07T21:39:24.093Z,20.08
2022-09-07T21:41:52.302Z,19.91
2022-09-07T21:44:20.603Z,19.90
2022-09-07T21:46:48.791Z,19.91
2022-09-07T21:49:17.195Z,19.52
2022-09-07T21:51:45.352Z,19.45
2022-09-07T21:54:13.506Z,19.71
2022-09-07T21:56:45.978Z,19.50
2022-09-07T21:59:14.973Z,19.80
2022-09-07T22:01:43.178Z,19.72
2022-09-07T22:04:12.103Z,19.61
2022-09-07T22:06:41.124Z,19.63
2022-09-07T22:09:09.525Z,19.86
2022-09-07T22:11:37.656Z,19.62
2022-09-07T22:14:06.578Z,19.53
2022-09-07T22:16:35.783Z,19.10
2022-09-07T22:19:06.507Z,19.35
2022-09-07T22:21:34.664Z,18.56
2022-09-07T22:24:06.057Z,18.48
2022-09-07T22:26:37.744Z,18.89
2022-09-07T22:29:09.090Z,19.26
2022-09-07T22:31:38.642Z,19.18
2022-09-07T22:34:09.457Z,19.23
2022-09-07T22:36:44.449Z,19.14
2022-09-07T22:39:17.413Z,19.21
2022-09-07T22:41:47.559Z,19.36
2022-09-07T22:44:18.626Z,19.38
2022-09-07T22:46:48.058Z,19.33
2022-09-07T22:49:17.124Z,19.25
2022-09-07T22:51:45.697Z,18.73
2022-09-07T22:54:14.098Z,19.09
2022-09-07T22:56:43.134Z,18.91
2022-09-07T22:59:12.750Z,18.97
2022-09-07T23:01:41.414Z,18.80
2022-09-07T23:04:10.861Z,19.07
2022-09-07T23:06:42.351Z,18.86
2022-09-07T23:09:17.620Z,18.86
2022-09-07T23:11:47.875Z,18.83
2022-09-07T23:14:20.396Z,18.88
2022-09-07T23:16:49.610Z,18.85
2022-09-07T23:19:19.766Z,18.94
2022-09-07T23:21:48.179Z,18.91
2022-09-07T23:24:19.171Z,18.73
2022-09-07T23:26:47.975Z,18.68
2022-09-07T23:29:16.522Z,18.71
2022-09-07T23:31:46.363Z,18.75
2022-09-07T23:34:14.633Z,18.78
2022-09-07T23:36:42.785Z,18.68
2022-09-07T23:39:11.070Z,18.44
2022-09-07T23:41:39.214Z,18.52
2022-09-07T23:44:07.488Z,18.14
2022-09-07T23:46:35.656Z,18.43
2022-09-07T23:49:03.788Z,18.20
2022-09-07T23:51:31.919Z,18.67
2022-09-07T23:54:00.080Z,18.55
2022-09-07T23:56:28.726Z,18.57
2022-09-07T23:58:56.990Z,18.47
